sensor_id;sensor_type;location;lat;lon;timestamp;P1;durP1;ratioP1;P2;durP2;ratioP2
67272;SDS011;54190;49.770;9.250;2023-05-07T00:02:21;5.10;;;3.37;;
67272;SDS011;54190;49.770;9.250;2023-05-07T00:04:47;4.97;;;3.40;;
67272;SDS011;54190;49.770;9.250;2023-05-07T00:07:14;5.20;;;3.33;;
67272;SDS011;54190;49.770;9.250;2023-05-07T00:09:40;4.63;;;3.37;;
67272;SDS011;54190;49.770;9.250;2023-05-07T00:12:05;5.13;;;3.50;;
67272;SDS011;54190;49.770;9.250;2023-05-07T00:14:31;4.40;;;3.07;;
67272;SDS011;54190;49.770;9.250;2023-05-07T00:16:57;6.73;;;3.40;;
67272;SDS011;54190;49.770;9.250;2023-05-07T00:19:22;3.63;;;3.13;;
67272;SDS011;54190;49.770;9.250;2023-05-07T00:21:48;4.93;;;3.50;;
67272;SDS011;54190;49.770;9.250;2023-05-07T00:24:14;3.80;;;3.40;;
67272;SDS011;54190;49.770;9.250;2023-05-07T00:26:39;4.13;;;3.50;;
67272;SDS011;54190;49.770;9.250;2023-05-07T00:29:05;8.23;;;3.80;;
67272;SDS011;54190;49.770;9.250;2023-05-07T00:31:31;5.83;;;3.80;;
67272;SDS011;54190;49.770;9.250;2023-05-07T00:33:56;4.70;;;3.73;;
67272;SDS011;54190;49.770;9.250;2023-05-07T00:36:22;7.37;;;4.00;;
67272;SDS011;54190;49.770;9.250;2023-05-07T00:38:47;6.13;;;3.90;;
67272;SDS011;54190;49.770;9.250;2023-05-07T00:41:15;11.17;;;4.00;;
67272;SDS011;54190;49.770;9.250;2023-05-07T00:43:40;5.50;;;3.87;;
67272;SDS011;54190;49.770;9.250;2023-05-07T00:46:06;7.27;;;3.30;;
67272;SDS011;54190;49.770;9.250;2023-05-07T00:48:32;3.73;;;3.13;;
67272;SDS011;54190;49.770;9.250;2023-05-07T00:50:57;4.10;;;3.37;;
67272;SDS011;54190;49.770;9.250;2023-05-07T00:53:23;6.10;;;4.30;;
67272;SDS011;54190;49.770;9.250;2023-05-07T00:55:49;7.30;;;4.30;;
67272;SDS011;54190;49.770;9.250;2023-05-07T00:58:16;4.30;;;3.57;;
67272;SDS011;54190;49.770;9.250;2023-05-07T01:00:41;4.20;;;3.70;;
67272;SDS011;54190;49.770;9.250;2023-05-07T01:03:07;5.07;;;3.60;;
67272;SDS011;54190;49.770;9.250;2023-05-07T01:05:33;6.97;;;4.47;;
67272;SDS011;54190;49.770;9.250;2023-05-07T01:08:01;8.10;;;5.10;;
67272;SDS011;54190;49.770;9.250;2023-05-07T01:10:29;7.80;;;4.70;;
67272;SDS011;54190;49.770;9.250;2023-05-07T01:12:55;6.80;;;4.27;;
67272;SDS011;54190;49.770;9.250;2023-05-07T01:15:23;6.60;;;4.30;;
67272;SDS011;54190;49.770;9.250;2023-05-07T01:17:49;6.80;;;3.73;;
67272;SDS011;54190;49.770;9.250;2023-05-07T01:20:24;7.03;;;4.53;;
67272;SDS011;54190;49.770;9.250;2023-05-07T01:22:51;4.40;;;3.83;;
67272;SDS011;54190;49.770;9.250;2023-05-07T01:25:18;5.37;;;4.57;;
67272;SDS011;54190;49.770;9.250;2023-05-07T01:27:48;6.13;;;3.97;;
67272;SDS011;54190;49.770;9.250;2023-05-07T01:30:17;6.33;;;4.37;;
67272;SDS011;54190;49.770;9.250;2023-05-07T01:32:50;4.57;;;4.03;;
67272;SDS011;54190;49.770;9.250;2023-05-07T01:35:22;7.20;;;4.33;;
67272;SDS011;54190;49.770;9.250;2023-05-07T01:37:50;4.70;;;3.73;;
67272;SDS011;54190;49.770;9.250;2023-05-07T01:40:16;4.83;;;4.00;;
67272;SDS011;54190;49.770;9.250;2023-05-07T01:42:45;4.90;;;4.07;;
67272;SDS011;54190;49.770;9.250;2023-05-07T01:45:13;5.03;;;3.70;;
67272;SDS011;54190;49.770;9.250;2023-05-07T01:47:39;6.57;;;4.23;;
67272;SDS011;54190;49.770;9.250;2023-05-07T01:50:05;5.13;;;3.73;;
67272;SDS011;54190;49.770;9.250;2023-05-07T01:52:33;5.53;;;3.80;;
67272;SDS011;54190;49.770;9.250;2023-05-07T01:54:59;8.20;;;4.00;;
67272;SDS011;54190;49.770;9.250;2023-05-07T01:57:25;7.90;;;4.30;;
67272;SDS011;54190;49.770;9.250;2023-05-07T01:59:50;5.60;;;4.30;;
67272;SDS011;54190;49.770;9.250;2023-05-07T02:02:17;5.30;;;4.27;;
67272;SDS011;54190;49.770;9.250;2023-05-07T02:04:43;8.80;;;4.70;;
67272;SDS011;54190;49.770;9.250;2023-05-07T02:07:09;5.30;;;3.67;;
67272;SDS011;54190;49.770;9.250;2023-05-07T02:09:36;4.70;;;4.20;;
67272;SDS011;54190;49.770;9.250;2023-05-07T02:12:02;5.40;;;4.20;;
67272;SDS011;54190;49.770;9.250;2023-05-07T02:14:28;6.60;;;4.80;;
67272;SDS011;54190;49.770;9.250;2023-05-07T02:16:54;5.27;;;4.10;;
67272;SDS011;54190;49.770;9.250;2023-05-07T02:19:19;5.30;;;4.20;;
67272;SDS011;54190;49.770;9.250;2023-05-07T02:21:46;6.87;;;3.70;;
67272;SDS011;54190;49.770;9.250;2023-05-07T02:24:12;5.30;;;3.53;;
67272;SDS011;54190;49.770;9.250;2023-05-07T02:26:39;10.57;;;4.30;;
67272;SDS011;54190;49.770;9.250;2023-05-07T02:29:06;6.40;;;3.53;;
67272;SDS011;54190;49.770;9.250;2023-05-07T02:31:32;5.20;;;3.93;;
67272;SDS011;54190;49.770;9.250;2023-05-07T02:33:59;6.23;;;3.87;;
67272;SDS011;54190;49.770;9.250;2023-05-07T02:36:26;6.53;;;4.20;;
67272;SDS011;54190;49.770;9.250;2023-05-07T02:38:59;4.60;;;3.70;;
67272;SDS011;54190;49.770;9.250;2023-05-07T02:41:26;5.30;;;3.90;;
67272;SDS011;54190;49.770;9.250;2023-05-07T02:43:53;6.50;;;4.07;;
67272;SDS011;54190;49.770;9.250;2023-05-07T02:46:18;4.67;;;3.90;;
67272;SDS011;54190;49.770;9.250;2023-05-07T02:48:50;9.33;;;3.83;;
67272;SDS011;54190;49.770;9.250;2023-05-07T02:51:17;5.10;;;4.00;;
67272;SDS011;54190;49.770;9.250;2023-05-07T02:53:44;5.17;;;4.27;;
67272;SDS011;54190;49.770;9.250;2023-05-07T02:56:11;6.53;;;3.90;;
67272;SDS011;54190;49.770;9.250;2023-05-07T02:58:37;6.53;;;3.60;;
67272;SDS011;54190;49.770;9.250;2023-05-07T03:01:04;5.20;;;3.90;;
67272;SDS011;54190;49.770;9.250;2023-05-07T03:03:35;4.40;;;3.80;;
67272;SDS011;54190;49.770;9.250;2023-05-07T03:06:01;7.53;;;3.97;;
67272;SDS011;54190;49.770;9.250;2023-05-07T03:08:27;3.80;;;3.30;;
67272;SDS011;54190;49.770;9.250;2023-05-07T03:10:53;7.00;;;3.80;;
67272;SDS011;54190;49.770;9.250;2023-05-07T03:13:19;3.97;;;3.57;;
67272;SDS011;54190;49.770;9.250;2023-05-07T03:15:45;4.53;;;3.60;;
67272;SDS011;54190;49.770;9.250;2023-05-07T03:18:10;5.83;;;3.97;;
67272;SDS011;54190;49.770;9.250;2023-05-07T03:20:36;5.90;;;4.00;;
67272;SDS011;54190;49.770;9.250;2023-05-07T03:23:02;5.10;;;3.63;;
67272;SDS011;54190;49.770;9.250;2023-05-07T03:25:28;4.67;;;3.83;;
67272;SDS011;54190;49.770;9.250;2023-05-07T03:27:55;7.10;;;3.90;;
67272;SDS011;54190;49.770;9.250;2023-05-07T03:30:25;6.20;;;3.80;;
67272;SDS011;54190;49.770;9.250;2023-05-07T03:32:51;6.67;;;3.70;;
67272;SDS011;54190;49.770;9.250;2023-05-07T03:35:16;5.70;;;3.63;;
67272;SDS011;54190;49.770;9.250;2023-05-07T03:37:42;5.80;;;3.90;;
67272;SDS011;54190;49.770;9.250;2023-05-07T03:40:09;5.10;;;3.83;;
67272;SDS011;54190;49.770;9.250;2023-05-07T03:42:42;5.30;;;3.43;;
67272;SDS011;54190;49.770;9.250;2023-05-07T03:45:09;4.50;;;3.30;;
67272;SDS011;54190;49.770;9.250;2023-05-07T03:47:36;5.30;;;3.40;;
67272;SDS011;54190;49.770;9.250;2023-05-07T03:50:02;7.30;;;3.83;;
67272;SDS011;54190;49.770;9.250;2023-05-07T03:52:28;5.17;;;3.70;;
67272;SDS011;54190;49.770;9.250;2023-05-07T03:54:56;5.03;;;3.43;;
67272;SDS011;54190;49.770;9.250;2023-05-07T03:57:22;6.60;;;3.70;;
67272;SDS011;54190;49.770;9.250;2023-05-07T03:59:48;4.53;;;3.80;;
67272;SDS011;54190;49.770;9.250;2023-05-07T04:02:13;4.10;;;3.27;;
67272;SDS011;54190;49.770;9.250;2023-05-07T04:04:39;4.20;;;3.50;;
67272;SDS011;54190;49.770;9.250;2023-05-07T04:07:05;7.83;;;4.33;;
67272;SDS011;54190;49.770;9.250;2023-05-07T04:09:36;5.30;;;3.70;;
67272;SDS011;54190;49.770;9.250;2023-05-07T04:12:02;6.00;;;3.97;;
67272;SDS011;54190;49.770;9.250;2023-05-07T04:14:29;5.73;;;3.50;;
67272;SDS011;54190;49.770;9.250;2023-05-07T04:16:58;4.83;;;3.73;;
67272;SDS011;54190;49.770;9.250;2023-05-07T04:19:24;4.30;;;3.70;;
67272;SDS011;54190;49.770;9.250;2023-05-07T04:21:52;4.77;;;3.83;;
67272;SDS011;54190;49.770;9.250;2023-05-07T04:24:17;7.77;;;4.10;;
67272;SDS011;54190;49.770;9.250;2023-05-07T04:26:44;4.30;;;3.40;;
67272;SDS011;54190;49.770;9.250;2023-05-07T04:29:10;6.00;;;3.57;;
67272;SDS011;54190;49.770;9.250;2023-05-07T04:31:36;5.07;;;3.73;;
67272;SDS011;54190;49.770;9.250;2023-05-07T04:34:02;7.20;;;3.97;;
67272;SDS011;54190;49.770;9.250;2023-05-07T04:36:28;5.53;;;4.27;;
67272;SDS011;54190;49.770;9.250;2023-05-07T04:38:59;5.57;;;3.80;;
67272;SDS011;54190;49.770;9.250;2023-05-07T04:41:25;4.97;;;3.93;;
67272;SDS011;54190;49.770;9.250;2023-05-07T04:43:51;4.80;;;4.10;;
67272;SDS011;54190;49.770;9.250;2023-05-07T04:46:20;4.97;;;3.93;;
67272;SDS011;54190;49.770;9.250;2023-05-07T04:48:46;6.40;;;4.30;;
67272;SDS011;54190;49.770;9.250;2023-05-07T04:51:12;5.70;;;4.50;;
67272;SDS011;54190;49.770;9.250;2023-05-07T04:53:38;10.43;;;4.50;;
67272;SDS011;54190;49.770;9.250;2023-05-07T04:56:04;6.50;;;4.57;;
67272;SDS011;54190;49.770;9.250;2023-05-07T04:58:38;7.13;;;4.57;;
67272;SDS011;54190;49.770;9.250;2023-05-07T05:01:04;8.83;;;7.53;;
67272;SDS011;54190;49.770;9.250;2023-05-07T05:03:30;6.80;;;5.77;;
67272;SDS011;54190;49.770;9.250;2023-05-07T05:05:56;5.90;;;5.13;;
67272;SDS011;54190;49.770;9.250;2023-05-07T05:08:25;5.70;;;4.53;;
67272;SDS011;54190;49.770;9.250;2023-05-07T05:10:51;7.73;;;4.87;;
67272;SDS011;54190;49.770;9.250;2023-05-07T05:13:17;5.20;;;4.67;;
67272;SDS011;54190;49.770;9.250;2023-05-07T05:15:43;6.13;;;4.57;;
67272;SDS011;54190;49.770;9.250;2023-05-07T05:18:09;5.40;;;4.60;;
67272;SDS011;54190;49.770;9.250;2023-05-07T05:20:35;5.97;;;4.33;;
67272;SDS011;54190;49.770;9.250;2023-05-07T05:23:01;6.70;;;4.80;;
67272;SDS011;54190;49.770;9.250;2023-05-07T05:25:28;6.70;;;5.27;;
67272;SDS011;54190;49.770;9.250;2023-05-07T05:27:55;5.53;;;4.73;;
67272;SDS011;54190;49.770;9.250;2023-05-07T05:30:21;6.10;;;5.37;;
67272;SDS011;54190;49.770;9.250;2023-05-07T05:32:47;6.40;;;4.73;;
67272;SDS011;54190;49.770;9.250;2023-05-07T05:35:13;5.60;;;4.80;;
67272;SDS011;54190;49.770;9.250;2023-05-07T05:37:40;7.47;;;5.20;;
67272;SDS011;54190;49.770;9.250;2023-05-07T05:40:06;6.73;;;4.80;;
67272;SDS011;54190;49.770;9.250;2023-05-07T05:42:32;6.27;;;5.13;;
67272;SDS011;54190;49.770;9.250;2023-05-07T05:44:59;8.60;;;5.43;;
67272;SDS011;54190;49.770;9.250;2023-05-07T05:47:25;6.50;;;5.10;;
67272;SDS011;54190;49.770;9.250;2023-05-07T05:49:53;5.80;;;4.83;;
67272;SDS011;54190;49.770;9.250;2023-05-07T05:52:19;7.30;;;4.97;;
67272;SDS011;54190;49.770;9.250;2023-05-07T05:54:45;6.53;;;5.50;;
67272;SDS011;54190;49.770;9.250;2023-05-07T05:57:11;8.03;;;5.10;;
67272;SDS011;54190;49.770;9.250;2023-05-07T05:59:37;6.73;;;5.20;;
67272;SDS011;54190;49.770;9.250;2023-05-07T06:02:02;6.00;;;5.40;;
67272;SDS011;54190;49.770;9.250;2023-05-07T06:04:28;6.83;;;5.83;;
67272;SDS011;54190;49.770;9.250;2023-05-07T06:06:55;7.40;;;5.80;;
67272;SDS011;54190;49.770;9.250;2023-05-07T06:09:23;7.60;;;5.40;;
67272;SDS011;54190;49.770;9.250;2023-05-07T06:11:49;6.77;;;5.30;;
67272;SDS011;54190;49.770;9.250;2023-05-07T06:14:16;10.33;;;6.40;;
67272;SDS011;54190;49.770;9.250;2023-05-07T06:16:43;6.77;;;5.87;;
67272;SDS011;54190;49.770;9.250;2023-05-07T06:19:09;6.87;;;5.70;;
67272;SDS011;54190;49.770;9.250;2023-05-07T06:21:35;9.20;;;5.50;;
67272;SDS011;54190;49.770;9.250;2023-05-07T06:24:01;5.63;;;5.03;;
67272;SDS011;54190;49.770;9.250;2023-05-07T06:26:27;6.47;;;5.70;;
67272;SDS011;54190;49.770;9.250;2023-05-07T06:28:53;6.73;;;5.77;;
67272;SDS011;54190;49.770;9.250;2023-05-07T06:31:19;6.97;;;6.00;;
67272;SDS011;54190;49.770;9.250;2023-05-07T06:33:55;5.77;;;5.17;;
67272;SDS011;54190;49.770;9.250;2023-05-07T06:36:24;6.80;;;5.80;;
67272;SDS011;54190;49.770;9.250;2023-05-07T06:38:54;7.00;;;5.70;;
67272;SDS011;54190;49.770;9.250;2023-05-07T06:41:19;9.33;;;6.10;;
67272;SDS011;54190;49.770;9.250;2023-05-07T06:43:45;7.30;;;5.40;;
67272;SDS011;54190;49.770;9.250;2023-05-07T06:46:24;10.10;;;6.07;;
67272;SDS011;54190;49.770;9.250;2023-05-07T06:48:50;7.50;;;5.50;;
67272;SDS011;54190;49.770;9.250;2023-05-07T06:51:15;9.40;;;5.70;;
67272;SDS011;54190;49.770;9.250;2023-05-07T06:53:41;6.27;;;5.67;;
67272;SDS011;54190;49.770;9.250;2023-05-07T06:56:09;6.77;;;5.57;;
67272;SDS011;54190;49.770;9.250;2023-05-07T06:58:37;6.43;;;5.73;;
67272;SDS011;54190;49.770;9.250;2023-05-07T07:01:03;13.30;;;5.70;;
67272;SDS011;54190;49.770;9.250;2023-05-07T07:03:28;12.40;;;9.10;;
67272;SDS011;54190;49.770;9.250;2023-05-07T07:05:54;9.13;;;7.07;;
67272;SDS011;54190;49.770;9.250;2023-05-07T07:08:21;7.40;;;5.70;;
67272;SDS011;54190;49.770;9.250;2023-05-07T07:10:47;7.43;;;5.70;;
67272;SDS011;54190;49.770;9.250;2023-05-07T07:13:13;6.30;;;5.70;;
67272;SDS011;54190;49.770;9.250;2023-05-07T07:15:39;11.50;;;10.27;;
67272;SDS011;54190;49.770;9.250;2023-05-07T07:18:05;7.00;;;5.83;;
67272;SDS011;54190;49.770;9.250;2023-05-07T07:20:31;6.70;;;5.87;;
67272;SDS011;54190;49.770;9.250;2023-05-07T07:22:57;7.03;;;5.97;;
67272;SDS011;54190;49.770;9.250;2023-05-07T07:25:23;7.23;;;5.50;;
67272;SDS011;54190;49.770;9.250;2023-05-07T07:27:50;7.10;;;6.40;;
67272;SDS011;54190;49.770;9.250;2023-05-07T07:30:16;8.17;;;5.90;;
67272;SDS011;54190;49.770;9.250;2023-05-07T07:32:45;6.13;;;5.53;;
67272;SDS011;54190;49.770;9.250;2023-05-07T07:35:11;7.27;;;5.73;;
67272;SDS011;54190;49.770;9.250;2023-05-07T07:37:37;7.27;;;5.93;;
67272;SDS011;54190;49.770;9.250;2023-05-07T07:40:03;7.60;;;6.00;;
67272;SDS011;54190;49.770;9.250;2023-05-07T07:42:31;8.37;;;6.47;;
67272;SDS011;54190;49.770;9.250;2023-05-07T07:44:57;7.70;;;5.77;;
67272;SDS011;54190;49.770;9.250;2023-05-07T07:47:24;7.63;;;6.03;;
67272;SDS011;54190;49.770;9.250;2023-05-07T07:49:51;7.43;;;6.60;;
67272;SDS011;54190;49.770;9.250;2023-05-07T07:52:18;7.80;;;6.43;;
67272;SDS011;54190;49.770;9.250;2023-05-07T07:54:44;6.97;;;6.20;;
67272;SDS011;54190;49.770;9.250;2023-05-07T07:57:10;8.47;;;6.53;;
67272;SDS011;54190;49.770;9.250;2023-05-07T07:59:36;8.37;;;6.20;;
67272;SDS011;54190;49.770;9.250;2023-05-07T08:02:02;8.53;;;6.43;;
67272;SDS011;54190;49.770;9.250;2023-05-07T08:04:29;7.13;;;6.10;;
67272;SDS011;54190;49.770;9.250;2023-05-07T08:06:57;7.20;;;6.40;;
67272;SDS011;54190;49.770;9.250;2023-05-07T08:09:24;7.97;;;6.93;;
67272;SDS011;54190;49.770;9.250;2023-05-07T08:11:51;7.00;;;6.10;;
67272;SDS011;54190;49.770;9.250;2023-05-07T08:14:17;8.33;;;6.77;;
67272;SDS011;54190;49.770;9.250;2023-05-07T08:16:46;6.87;;;6.17;;
67272;SDS011;54190;49.770;9.250;2023-05-07T08:19:12;7.43;;;6.53;;
67272;SDS011;54190;49.770;9.250;2023-05-07T08:21:38;8.43;;;6.70;;
67272;SDS011;54190;49.770;9.250;2023-05-07T08:24:05;9.03;;;6.90;;
67272;SDS011;54190;49.770;9.250;2023-05-07T08:26:31;7.43;;;6.73;;
67272;SDS011;54190;49.770;9.250;2023-05-07T08:28:57;7.93;;;6.43;;
67272;SDS011;54190;49.770;9.250;2023-05-07T08:31:23;9.53;;;7.53;;
67272;SDS011;54190;49.770;9.250;2023-05-07T08:33:49;8.57;;;6.60;;
67272;SDS011;54190;49.770;9.250;2023-05-07T08:36:15;8.97;;;7.17;;
67272;SDS011;54190;49.770;9.250;2023-05-07T08:38:41;7.33;;;6.63;;
67272;SDS011;54190;49.770;9.250;2023-05-07T08:41:09;7.43;;;6.23;;
67272;SDS011;54190;49.770;9.250;2023-05-07T08:43:36;8.97;;;7.37;;
67272;SDS011;54190;49.770;9.250;2023-05-07T08:46:05;11.33;;;6.80;;
67272;SDS011;54190;49.770;9.250;2023-05-07T08:48:35;8.50;;;6.70;;
67272;SDS011;54190;49.770;9.250;2023-05-07T08:51:11;7.57;;;6.77;;
67272;SDS011;54190;49.770;9.250;2023-05-07T08:53:39;7.13;;;6.43;;
67272;SDS011;54190;49.770;9.250;2023-05-07T08:56:08;10.33;;;7.10;;
67272;SDS011;54190;49.770;9.250;2023-05-07T08:58:35;8.33;;;7.10;;
67272;SDS011;54190;49.770;9.250;2023-05-07T09:01:03;10.00;;;7.93;;
67272;SDS011;54190;49.770;9.250;2023-05-07T09:03:37;11.17;;;7.90;;
67272;SDS011;54190;49.770;9.250;2023-05-07T09:06:04;9.53;;;7.77;;
67272;SDS011;54190;49.770;9.250;2023-05-07T09:08:32;8.80;;;7.70;;
67272;SDS011;54190;49.770;9.250;2023-05-07T09:11:01;10.33;;;7.90;;
67272;SDS011;54190;49.770;9.250;2023-05-07T09:13:28;8.33;;;6.53;;
67272;SDS011;54190;49.770;9.250;2023-05-07T09:15:54;8.80;;;7.50;;
67272;SDS011;54190;49.770;9.250;2023-05-07T09:18:21;8.73;;;7.33;;
67272;SDS011;54190;49.770;9.250;2023-05-07T09:20:48;9.10;;;7.33;;
67272;SDS011;54190;49.770;9.250;2023-05-07T09:23:17;9.50;;;7.57;;
67272;SDS011;54190;49.770;9.250;2023-05-07T09:25:43;8.00;;;7.20;;
67272;SDS011;54190;49.770;9.250;2023-05-07T09:28:16;8.00;;;6.60;;
67272;SDS011;54190;49.770;9.250;2023-05-07T09:30:41;10.20;;;7.67;;
67272;SDS011;54190;49.770;9.250;2023-05-07T09:33:09;9.00;;;7.60;;
67272;SDS011;54190;49.770;9.250;2023-05-07T09:35:38;8.70;;;7.80;;
67272;SDS011;54190;49.770;9.250;2023-05-07T09:38:09;8.00;;;7.20;;
67272;SDS011;54190;49.770;9.250;2023-05-07T09:40:35;8.17;;;6.80;;
67272;SDS011;54190;49.770;9.250;2023-05-07T09:43:09;7.13;;;6.43;;
67272;SDS011;54190;49.770;9.250;2023-05-07T09:45:38;9.33;;;7.93;;
67272;SDS011;54190;49.770;9.250;2023-05-07T09:48:05;8.43;;;7.10;;
67272;SDS011;54190;49.770;9.250;2023-05-07T09:50:35;11.30;;;7.20;;
67272;SDS011;54190;49.770;9.250;2023-05-07T09:53:03;8.70;;;7.43;;
67272;SDS011;54190;49.770;9.250;2023-05-07T09:55:30;8.60;;;7.50;;
67272;SDS011;54190;49.770;9.250;2023-05-07T09:57:56;8.07;;;7.27;;
67272;SDS011;54190;49.770;9.250;2023-05-07T10:00:25;11.33;;;7.70;;
67272;SDS011;54190;49.770;9.250;2023-05-07T10:03:00;8.20;;;7.37;;
67272;SDS011;54190;49.770;9.250;2023-05-07T10:05:36;7.90;;;7.03;;
67272;SDS011;54190;49.770;9.250;2023-05-07T10:08:03;7.93;;;6.90;;
67272;SDS011;54190;49.770;9.250;2023-05-07T10:10:29;9.50;;;6.57;;
67272;SDS011;54190;49.770;9.250;2023-05-07T10:12:56;7.67;;;6.87;;
67272;SDS011;54190;49.770;9.250;2023-05-07T10:15:29;7.90;;;7.07;;
67272;SDS011;54190;49.770;9.250;2023-05-07T10:17:56;8.63;;;7.40;;
67272;SDS011;54190;49.770;9.250;2023-05-07T10:20:23;6.67;;;6.07;;
67272;SDS011;54190;49.770;9.250;2023-05-07T10:22:49;7.97;;;7.17;;
67272;SDS011;54190;49.770;9.250;2023-05-07T10:25:26;9.53;;;7.17;;
67272;SDS011;54190;49.770;9.250;2023-05-07T10:27:57;7.83;;;7.10;;
67272;SDS011;54190;49.770;9.250;2023-05-07T10:33:46;8.10;;;6.40;;
67272;SDS011;54190;49.770;9.250;2023-05-07T10:36:14;7.20;;;6.50;;
67272;SDS011;54190;49.770;9.250;2023-05-07T10:38:41;7.50;;;6.07;;
67272;SDS011;54190;49.770;9.250;2023-05-07T10:41:08;10.17;;;6.80;;
67272;SDS011;54190;49.770;9.250;2023-05-07T10:43:38;7.40;;;6.27;;
67272;SDS011;54190;49.770;9.250;2023-05-07T10:46:14;9.90;;;7.10;;
67272;SDS011;54190;49.770;9.250;2023-05-07T10:57:40;7.67;;;6.10;;
67272;SDS011;54190;49.770;9.250;2023-05-07T11:03:10;9.73;;;6.23;;
67272;SDS011;54190;49.770;9.250;2023-05-07T11:05:42;6.83;;;6.10;;
67272;SDS011;54190;49.770;9.250;2023-05-07T11:08:17;8.87;;;6.60;;
67272;SDS011;54190;49.770;9.250;2023-05-07T11:11:01;7.10;;;6.40;;
67272;SDS011;54190;49.770;9.250;2023-05-07T11:13:42;6.67;;;6.03;;
67272;SDS011;54190;49.770;9.250;2023-05-07T11:16:31;8.30;;;6.83;;
67272;SDS011;54190;49.770;9.250;2023-05-07T11:19:10;8.30;;;6.27;;
67272;SDS011;54190;49.770;9.250;2023-05-07T11:21:41;7.30;;;6.37;;
67272;SDS011;54190;49.770;9.250;2023-05-07T11:24:37;6.87;;;6.20;;
67272;SDS011;54190;49.770;9.250;2023-05-07T11:27:08;7.57;;;5.87;;
67272;SDS011;54190;49.770;9.250;2023-05-07T11:29:35;6.17;;;5.57;;
67272;SDS011;54190;49.770;9.250;2023-05-07T11:32:08;6.40;;;5.80;;
67272;SDS011;54190;49.770;9.250;2023-05-07T11:34:43;8.43;;;6.40;;
67272;SDS011;54190;49.770;9.250;2023-05-07T11:37:10;8.80;;;5.90;;
67272;SDS011;54190;49.770;9.250;2023-05-07T11:39:44;7.43;;;6.37;;
67272;SDS011;54190;49.770;9.250;2023-05-07T11:42:25;6.70;;;6.10;;
67272;SDS011;54190;49.770;9.250;2023-05-07T11:44:51;7.73;;;5.93;;
67272;SDS011;54190;49.770;9.250;2023-05-07T11:47:17;7.30;;;5.90;;
67272;SDS011;54190;49.770;9.250;2023-05-07T11:49:46;7.90;;;5.60;;
67272;SDS011;54190;49.770;9.250;2023-05-07T11:52:16;6.80;;;6.10;;
67272;SDS011;54190;49.770;9.250;2023-05-07T11:54:49;7.47;;;6.70;;
67272;SDS011;54190;49.770;9.250;2023-05-07T11:57:15;6.90;;;6.10;;
67272;SDS011;54190;49.770;9.250;2023-05-07T11:59:41;8.03;;;6.00;;
67272;SDS011;54190;49.770;9.250;2023-05-07T12:02:09;6.77;;;6.07;;
67272;SDS011;54190;49.770;9.250;2023-05-07T12:04:35;9.73;;;5.77;;
67272;SDS011;54190;49.770;9.250;2023-05-07T12:07:01;7.27;;;6.57;;
67272;SDS011;54190;49.770;9.250;2023-05-07T12:09:26;6.87;;;5.70;;
67272;SDS011;54190;49.770;9.250;2023-05-07T12:11:52;6.90;;;6.10;;
67272;SDS011;54190;49.770;9.250;2023-05-07T12:14:18;6.50;;;5.80;;
67272;SDS011;54190;49.770;9.250;2023-05-07T12:16:44;9.10;;;5.90;;
67272;SDS011;54190;49.770;9.250;2023-05-07T12:19:10;6.40;;;5.70;;
67272;SDS011;54190;49.770;9.250;2023-05-07T12:21:39;8.10;;;5.20;;
67272;SDS011;54190;49.770;9.250;2023-05-07T12:24:05;6.60;;;5.60;;
67272;SDS011;54190;49.770;9.250;2023-05-07T12:26:35;9.50;;;5.90;;
67272;SDS011;54190;49.770;9.250;2023-05-07T12:29:06;10.30;;;5.47;;
67272;SDS011;54190;49.770;9.250;2023-05-07T12:31:32;6.30;;;5.70;;
67272;SDS011;54190;49.770;9.250;2023-05-07T12:33:57;9.57;;;6.00;;
67272;SDS011;54190;49.770;9.250;2023-05-07T12:36:23;5.80;;;5.10;;
67272;SDS011;54190;49.770;9.250;2023-05-07T12:38:49;7.40;;;5.23;;
67272;SDS011;54190;49.770;9.250;2023-05-07T12:41:15;6.23;;;5.30;;
67272;SDS011;54190;49.770;9.250;2023-05-07T12:43:43;5.30;;;4.80;;
67272;SDS011;54190;49.770;9.250;2023-05-07T12:46:10;6.30;;;5.20;;
67272;SDS011;54190;49.770;9.250;2023-05-07T12:48:38;6.03;;;5.20;;
67272;SDS011;54190;49.770;9.250;2023-05-07T12:51:10;6.13;;;5.03;;
67272;SDS011;54190;49.770;9.250;2023-05-07T12:53:41;5.03;;;4.53;;
67272;SDS011;54190;49.770;9.250;2023-05-07T12:56:07;4.40;;;3.97;;
67272;SDS011;54190;49.770;9.250;2023-05-07T12:58:34;5.70;;;5.00;;
67272;SDS011;54190;49.770;9.250;2023-05-07T13:01:04;5.00;;;4.50;;
67272;SDS011;54190;49.770;9.250;2023-05-07T13:03:35;6.50;;;5.13;;
67272;SDS011;54190;49.770;9.250;2023-05-07T13:06:03;5.17;;;4.73;;
67272;SDS011;54190;49.770;9.250;2023-05-07T13:08:40;9.23;;;4.97;;
67272;SDS011;54190;49.770;9.250;2023-05-07T13:11:10;5.50;;;4.70;;
67272;SDS011;54190;49.770;9.250;2023-05-07T13:13:36;4.60;;;4.20;;
67272;SDS011;54190;49.770;9.250;2023-05-07T13:16:05;7.57;;;4.50;;
67272;SDS011;54190;49.770;9.250;2023-05-07T13:18:32;6.60;;;4.90;;
67272;SDS011;54190;49.770;9.250;2023-05-07T13:20:58;4.67;;;4.27;;
67272;SDS011;54190;49.770;9.250;2023-05-07T13:23:25;8.17;;;4.83;;
67272;SDS011;54190;49.770;9.250;2023-05-07T13:25:51;4.90;;;4.40;;
67272;SDS011;54190;49.770;9.250;2023-05-07T13:28:20;4.23;;;3.80;;
67272;SDS011;54190;49.770;9.250;2023-05-07T13:30:46;5.13;;;4.63;;
67272;SDS011;54190;49.770;9.250;2023-05-07T13:33:12;7.07;;;4.67;;
67272;SDS011;54190;49.770;9.250;2023-05-07T13:35:38;5.17;;;4.57;;
67272;SDS011;54190;49.770;9.250;2023-05-07T13:38:04;4.53;;;4.13;;
67272;SDS011;54190;49.770;9.250;2023-05-07T13:40:30;5.30;;;4.37;;
67272;SDS011;54190;49.770;9.250;2023-05-07T13:42:57;7.87;;;5.33;;
67272;SDS011;54190;49.770;9.250;2023-05-07T13:45:23;4.70;;;4.30;;
67272;SDS011;54190;49.770;9.250;2023-05-07T13:47:50;5.77;;;4.43;;
67272;SDS011;54190;49.770;9.250;2023-05-07T13:50:16;5.20;;;4.67;;
67272;SDS011;54190;49.770;9.250;2023-05-07T13:52:43;7.73;;;4.20;;
67272;SDS011;54190;49.770;9.250;2023-05-07T13:55:15;5.10;;;4.10;;
67272;SDS011;54190;49.770;9.250;2023-05-07T13:57:45;4.80;;;4.30;;
67272;SDS011;54190;49.770;9.250;2023-05-07T14:00:11;4.50;;;4.10;;
67272;SDS011;54190;49.770;9.250;2023-05-07T14:02:40;5.63;;;4.30;;
67272;SDS011;54190;49.770;9.250;2023-05-07T14:05:06;5.33;;;4.50;;
67272;SDS011;54190;49.770;9.250;2023-05-07T14:07:32;8.00;;;4.07;;
67272;SDS011;54190;49.770;9.250;2023-05-07T14:09:58;7.83;;;3.93;;
67272;SDS011;54190;49.770;9.250;2023-05-07T14:12:24;6.27;;;4.47;;
67272;SDS011;54190;49.770;9.250;2023-05-07T14:14:49;4.60;;;4.20;;
67272;SDS011;54190;49.770;9.250;2023-05-07T14:17:18;4.53;;;4.03;;
67272;SDS011;54190;49.770;9.250;2023-05-07T14:19:45;6.23;;;4.50;;
67272;SDS011;54190;49.770;9.250;2023-05-07T14:22:10;7.80;;;4.70;;
67272;SDS011;54190;49.770;9.250;2023-05-07T14:24:38;4.57;;;4.17;;
67272;SDS011;54190;49.770;9.250;2023-05-07T14:27:04;6.00;;;4.37;;
67272;SDS011;54190;49.770;9.250;2023-05-07T14:29:30;4.20;;;3.80;;
67272;SDS011;54190;49.770;9.250;2023-05-07T14:31:56;6.03;;;4.47;;
67272;SDS011;54190;49.770;9.250;2023-05-07T14:34:22;4.50;;;3.77;;
67272;SDS011;54190;49.770;9.250;2023-05-07T14:36:47;4.80;;;4.33;;
67272;SDS011;54190;49.770;9.250;2023-05-07T14:39:13;6.00;;;4.07;;
67272;SDS011;54190;49.770;9.250;2023-05-07T14:41:38;8.60;;;3.77;;
67272;SDS011;54190;49.770;9.250;2023-05-07T14:44:04;5.77;;;4.40;;
67272;SDS011;54190;49.770;9.250;2023-05-07T14:46:30;5.17;;;4.00;;
67272;SDS011;54190;49.770;9.250;2023-05-07T14:48:56;9.80;;;4.40;;
67272;SDS011;54190;49.770;9.250;2023-05-07T14:51:22;4.57;;;4.07;;
67272;SDS011;54190;49.770;9.250;2023-05-07T14:53:49;4.10;;;3.63;;
67272;SDS011;54190;49.770;9.250;2023-05-07T14:56:15;4.40;;;3.53;;
67272;SDS011;54190;49.770;9.250;2023-05-07T14:58:42;5.13;;;4.10;;
67272;SDS011;54190;49.770;9.250;2023-05-07T15:01:08;5.10;;;4.27;;
67272;SDS011;54190;49.770;9.250;2023-05-07T15:03:34;4.80;;;4.30;;
67272;SDS011;54190;49.770;9.250;2023-05-07T15:05:59;4.73;;;4.30;;